Time;durP1;ratioP1;P1;durP2;ratioP2;P2;SDS_P1;SDS_P2;PMS_P1;PMS_P2;Temp;Humidity;BMP_temperature;BMP_pressure;BME280_temperature;BME280_humidity;BME280_pressure;Samples;Min_cycle;Max_cycle;Signal;HPM_P1;HPM_P2
2022/03/11 00:01:20;;;;;;;13.98;7.22;;;;;;;3.32;46.11;99493.91;5268344;28;20481;-65
2022/03/11 00:04:11;;;;;;;11.90;6.50;;;;;;;3.17;46.05;99495.59;5268957;28;20058;-65
2022/03/11 00:07:01;;;;;;;14.43;7.28;;;;;;;3.32;44.74;99486.03;5261738;28;20121;-65
2022/03/11 00:09:50;;;;;;;13.52;6.70;;;;;;;3.38;45.15;99488.28;5264266;28;20490;-65
2022/03/11 00:12:41;;;;;;;16.73;6.88;;;;;;;3.38;45.13;99483.03;5268702;28;20063;-65
2022/03/11 00:15:32;;;;;;;13.95;6.97;;;;;;;3.11;45.40;99477.56;5270946;28;20149;-65
2022/03/11 00:18:22;;;;;;;14.38;7.13;;;;;;;3.03;46.15;99462.28;5268055;28;20149;-65
2022/03/11 00:21:12;;;;;;;14.13;7.55;;;;;;;3.20;46.54;99477.91;5272741;28;21257;-65
2022/03/11 00:24:03;;;;;;;17.63;6.95;;;;;;;3.34;45.77;99471.06;5269505;28;20089;-65
2022/03/11 00:26:53;;;;;;;17.40;7.00;;;;;;;3.73;45.53;99474.03;5266960;28;20060;-65
2022/03/11 00:29:43;;;;;;;18.70;7.85;;;;;;;3.86;45.25;99470.69;5273261;28;20058;-65
2022/03/11 00:32:34;;;;;;;19.85;8.02;;;;;;;4.21;43.71;99469.44;5274364;28;20411;-65
2022/03/11 00:35:23;;;;;;;17.45;8.00;;;;;;;4.23;44.60;99457.06;5279819;28;20421;-65
2022/03/11 00:38:14;;;;;;;23.40;8.95;;;;;;;4.12;44.49;99471.78;5262513;28;20047;-66
2022/03/11 00:41:03;;;;;;;19.00;7.88;;;;;;;4.56;44.18;99474.34;5265047;28;20064;-65
2022/03/11 00:43:55;;;;;;;21.48;9.00;;;;;;;4.44;43.88;99454.09;5264023;28;20148;-66
2022/03/11 00:46:45;;;;;;;20.00;8.80;;;;;;;4.67;43.96;99471.06;5258987;28;20081;-65
2022/03/11 00:49:37;;;;;;;24.48;9.38;;;;;;;4.54;44.21;99463.09;5275582;28;20574;-66
2022/03/11 00:52:28;;;;;;;16.75;8.52;;;;;;;4.87;43.51;99473.28;5264491;28;20055;-65
2022/03/11 00:55:18;;;;;;;18.15;9.02;;;;;;;4.77;43.92;99477.44;5265798;28;20172;-66
2022/03/11 00:58:09;;;;;;;18.65;9.20;;;;;;;4.79;44.23;99475.53;5270264;28;20048;-65
2022/03/11 01:00:58;;;;;;;18.13;9.07;;;;;;;5.14;43.52;99475.13;5273589;28;20120;-66
2022/03/11 01:03:49;;;;;;;22.35;9.73;;;;;;;5.12;43.20;99475.19;5281628;28;20054;-65
2022/03/11 01:06:40;;;;;;;20.30;9.15;;;;;;;5.15;43.33;99472.38;5273998;28;20663;-66
2022/03/11 01:09:30;;;;;;;21.17;9.70;;;;;;;5.02;44.38;99471.47;5265109;28;20055;-65
2022/03/11 01:12:21;;;;;;;22.38;9.82;;;;;;;4.75;44.53;99467.97;5266555;28;20050;-65
2022/03/11 01:15:12;;;;;;;32.85;10.23;;;;;;;4.74;44.23;99466.28;5270274;28;20109;-66
2022/03/11 01:18:02;;;;;;;27.05;10.65;;;;;;;4.66;44.87;99456.22;5277155;28;20205;-66
2022/03/11 01:20:52;;;;;;;21.30;9.90;;;;;;;4.96;44.88;99458.72;5283533;28;20051;-66
2022/03/11 01:23:43;;;;;;;24.50;10.77;;;;;;;4.80;45.28;99456.22;5270163;28;20062;-66
2022/03/11 01:26:33;;;;;;;21.45;10.82;;;;;;;4.80;45.87;99458.00;5267681;28;20459;-65
2022/03/11 01:29:24;;;;;;;20.63;10.48;;;;;;;4.89;45.80;99463.50;5269144;28;20089;-65
2022/03/11 01:32:14;;;;;;;21.63;10.45;;;;;;;4.88;46.21;99458.38;5274894;28;20043;-65
2022/03/11 01:35:05;;;;;;;22.70;11.25;;;;;;;4.86;45.85;99452.34;5277367;28;20197;-66
2022/03/11 01:37:56;;;;;;;21.58;11.05;;;;;;;4.76;45.89;99453.88;5267280;28;20097;-65
2022/03/11 01:40:46;;;;;;;25.17;11.88;;;;;;;4.95;46.46;99451.78;5265195;28;20055;-66
2022/03/11 01:43:51;;;;;;;23.83;12.50;;;;;;;4.85;46.66;99455.94;5264538;28;20051;-65
2022/03/11 01:46:41;;;;;;;25.20;12.95;;;;;;;4.80;46.40;99435.22;5254810;28;20066;-66
2022/03/11 01:49:31;;;;;;;26.50;12.70;;;;;;;4.78;46.76;99446.75;5260438;28;20531;-65
2022/03/11 01:52:21;;;;;;;29.63;12.80;;;;;;;4.53;47.40;99452.66;5266244;28;20047;-65
2022/03/11 01:55:13;;;;;;;26.05;13.23;;;;;;;4.54;47.57;99451.75;5266368;28;20044;-65
2022/03/11 01:58:07;;;;;;;22.73;11.90;;;;;;;4.25;47.52;99457.00;5272971;28;20055;-65
2022/03/11 02:00:57;;;;;;;22.55;12.60;;;;;;;4.06;47.63;99454.63;5269457;28;20079;-65
2022/03/11 02:03:48;;;;;;;26.73;12.93;;;;;;;4.44;46.92;99459.34;5275553;28;20055;-66
2022/03/11 02:06:39;;;;;;;29.20;14.80;;;;;;;3.93;48.50;99440.53;5266451;28;20051;-65
2022/03/11 02:09:29;;;;;;;29.25;13.70;;;;;;;4.00;47.64;99423.47;5265886;28;20055;-65
2022/03/11 02:12:30;;;;;;;31.90;15.43;;;;;;;4.04;48.51;99453.00;5265486;28;20552;-65
2022/03/11 02:15:20;;;;;;;29.70;14.90;;;;;;;3.87;48.45;99446.97;5266175;28;20051;-65
2022/03/11 02:18:10;;;;;;;28.23;13.60;;;;;;;3.64;48.57;99445.72;5265760;28;20052;-65
2022/03/11 02:21:00;;;;;;;30.15;15.38;;;;;;;3.48;49.25;99444.91;5265932;28;20148;-65
2022/03/11 02:23:52;;;;;;;36.00;15.02;;;;;;;3.45;49.42;99445.94;5267190;28;20050;-65
2022/03/11 02:26:42;;;;;;;37.22;16.23;;;;;;;3.73;48.80;99446.94;5260254;28;20048;-66
2022/03/11 02:29:32;;;;;;;30.48;15.00;;;;;;;3.68;49.15;99442.00;5261859;28;20060;-65
2022/03/11 02:32:22;;;;;;;30.83;14.35;;;;;;;3.58;50.02;99443.47;5266117;28;20450;-65
2022/03/11 02:35:14;;;;;;;32.58;15.30;;;;;;;3.78;49.52;99438.84;5265797;28;20059;-65
2022/03/11 02:38:04;;;;;;;32.20;15.65;;;;;;;3.24;51.03;99441.91;5265051;28;20059;-65
2022/03/11 02:40:55;;;;;;;40.45;16.50;;;;;;;3.12;50.77;99440.81;5265654;28;20109;-65
2022/03/11 02:43:45;;;;;;;34.28;16.77;;;;;;;3.50;49.96;99448.28;5263413;28;20085;-65
2022/03/11 02:46:35;;;;;;;35.15;17.23;;;;;;;3.53;49.92;99450.72;5262090;28;20097;-65
2022/03/11 02:49:27;;;;;;;34.35;17.40;;;;;;;3.32;50.31;99449.34;5265896;28;20043;-66
2022/03/11 02:52:17;;;;;;;34.92;17.45;;;;;;;3.49;49.71;99444.81;5266112;28;20051;-66
2022/03/11 02:55:08;;;;;;;37.60;18.17;;;;;;;3.51;50.23;99442.97;5265453;28;20054;-66
2022/03/11 02:57:58;;;;;;;36.33;18.30;;;;;;;3.32;50.74;99439.72;5265454;28;20714;-65
2022/03/11 03:00:48;;;;;;;32.08;17.73;;;;;;;3.37;49.76;99434.19;5265708;28;20731;-66
2022/03/11 03:03:39;;;;;;;36.10;17.35;;;;;;;3.31;50.42;99432.75;5267972;28;20052;-66
2022/03/11 03:06:30;;;;;;;35.28;18.45;;;;;;;3.06;50.09;99404.50;5265269;28;20044;-66
2022/03/11 03:09:21;;;;;;;41.83;18.35;;;;;;;3.24;50.38;99440.13;5265245;28;20062;-66
2022/03/11 03:12:11;;;;;;;46.55;19.33;;;;;;;3.18;50.60;99427.38;5266645;28;20113;-66
2022/03/11 03:15:01;;;;;;;37.53;19.13;;;;;;;3.26;50.32;99422.53;5261939;28;20058;-66
2022/03/11 03:17:52;;;;;;;33.45;18.10;;;;;;;3.06;51.16;99430.69;5261350;28;20124;-67
2022/03/11 03:20:42;;;;;;;35.85;17.77;;;;;;;2.57;51.79;99384.47;5263045;28;20075;-66
2022/03/11 03:23:33;;;;;;;40.70;18.90;;;;;;;2.94;51.31;99424.34;5267301;28;20425;-66
2022/03/11 03:26:23;;;;;;;38.47;18.02;;;;;;;2.87;51.70;99416.91;5265135;28;20059;-66
2022/03/11 03:29:13;;;;;;;37.95;18.33;;;;;;;2.94;51.54;99423.50;5265178;28;20131;-66
2022/03/11 03:32:04;;;;;;;38.47;19.23;;;;;;;2.99;51.15;99416.25;5265994;28;20501;-66
2022/03/11 03:34:54;;;;;;;37.88;18.75;;;;;;;3.41;49.26;99401.63;5270470;28;20044;-66
2022/03/11 03:37:44;;;;;;;36.97;18.33;;;;;;;3.28;49.84;99430.34;5264808;28;20048;-66
2022/03/11 03:40:36;;;;;;;42.20;19.15;;;;;;;3.40;49.72;99428.78;5264828;28;20074;-66
2022/03/11 03:43:26;;;;;;;37.72;18.23;;;;;;;3.22;49.94;99430.69;5263613;28;20066;-66
2022/03/11 03:46:16;;;;;;;38.70;19.75;;;;;;;3.01;50.22;99424.84;5263298;28;20047;-66
2022/03/11 03:49:07;;;;;;;40.72;19.33;;;;;;;3.00;50.66;99423.16;5262083;28;20833;-66
2022/03/11 03:51:58;;;;;;;40.13;19.45;;;;;;;2.96;50.64;99424.28;5250361;28;20063;-66
2022/03/11 03:54:55;;;;;;;41.10;19.40;;;;;;;2.88;50.38;99422.09;5257621;28;20066;-66
2022/03/11 03:57:45;;;;;;;38.65;18.48;;;;;;;2.73;51.08;99420.31;5264237;28;20062;-66
2022/03/11 04:00:36;;;;;;;39.15;18.38;;;;;;;2.61;50.80;99421.81;5264611;28;20058;-66
2022/03/11 04:03:26;;;;;;;38.03;19.02;;;;;;;2.55;50.95;99406.41;5273932;28;20074;-66
2022/03/11 04:06:25;;;;;;;37.90;18.10;;;;;;;2.35;51.19;99418.84;5264314;28;20048;-66
2022/03/11 04:09:15;;;;;;;37.95;18.35;;;;;;;2.16;50.65;99405.03;5264437;28;20052;-66
2022/03/11 04:12:06;;;;;;;42.42;19.35;;;;;;;2.30;51.12;99417.38;5270619;28;20205;-66
2022/03/11 04:14:56;;;;;;;40.85;19.73;;;;;;;2.38;51.29;99423.03;5264646;28;20055;-66
2022/03/11 04:17:46;;;;;;;44.88;19.00;;;;;;;2.82;50.61;99404.94;5257441;28;20520;-67
2022/03/11 04:20:36;;;;;;;38.80;17.92;;;;;;;2.68;49.47;99412.72;5264055;28;20051;-66
2022/03/11 04:23:26;;;;;;;38.60;17.48;;;;;;;2.75;49.24;99416.69;5260761;28;20608;-67
2022/03/11 04:26:16;;;;;;;38.97;17.48;;;;;;;2.85;49.25;99421.38;5264117;28;20493;-66
2022/03/11 04:29:06;;;;;;;38.97;19.48;;;;;;;2.85;49.64;99421.38;5263294;28;20056;-66
2022/03/11 04:31:56;;;;;;;36.22;17.35;;;;;;;2.84;48.86;99407.44;5264390;28;20525;-67
2022/03/11 04:34:47;;;;;;;35.72;17.50;;;;;;;2.97;48.67;99428.56;5250211;28;20418;-66
2022/03/11 04:37:37;;;;;;;33.08;16.70;;;;;;;3.01;48.24;99423.09;5268696;28;20055;-66
2022/03/11 04:40:27;;;;;;;37.67;18.40;;;;;;;2.58;49.28;99422.84;5268109;28;20137;-67
2022/03/11 04:43:17;;;;;;;35.65;16.90;;;;;;;2.85;48.44;99421.38;5277355;28;20064;-66
2022/03/11 04:46:07;;;;;;;34.88;16.42;;;;;;;2.85;48.90;99416.16;5259987;28;20051;-66
2022/03/11 04:48:58;;;;;;;36.17;17.25;;;;;;;2.80;49.06;99416.41;5268251;28;20055;-66
2022/03/11 04:51:48;;;;;;;34.28;16.08;;;;;;;2.84;48.60;99417.94;5270382;28;20137;-66
2022/03/11 04:54:38;;;;;;;34.20;16.13;;;;;;;3.36;46.86;99417.63;5266917;28;20068;-67
2022/03/11 04:57:28;;;;;;;33.00;15.90;;;;;;;3.10;47.66;99418.25;5264589;28;20071;-66
2022/03/11 05:00:18;;;;;;;34.03;15.70;;;;;;;2.88;47.73;99400.25;5266462;28;20126;-66
2022/03/11 05:03:08;;;;;;;31.25;15.48;;;;;;;2.95;48.39;99414.75;5278430;28;20541;-66
2022/03/11 05:05:59;;;;;;;34.83;16.92;;;;;;;2.78;48.42;99415.63;5272533;28;20196;-67
2022/03/11 05:08:48;;;;;;;53.55;25.30;;;;;;;2.81;49.25;99426.81;5275420;28;20184;-67
2022/03/11 05:11:38;;;;;;;34.92;16.45;;;;;;;2.79;47.81;99423.44;5276840;28;20069;-66
2022/03/11 05:14:28;;;;;;;31.20;15.25;;;;;;;2.65;48.76;99415.50;5278185;28;20044;-67
2022/03/11 05:17:19;;;;;;;30.23;15.48;;;;;;;2.98;47.40;99418.03;5276327;28;20055;-66
2022/03/11 05:20:10;;;;;;;29.08;13.65;;;;;;;3.02;46.23;99414.28;5267233;28;20055;-67
2022/03/11 05:23:01;;;;;;;35.60;16.35;;;;;;;2.53;47.91;99411.75;5274529;28;20063;-66
2022/03/11 05:25:52;;;;;;;35.85;16.10;;;;;;;2.09;49.30;99420.19;5267668;28;20185;-66
2022/03/11 05:28:44;;;;;;;35.60;15.38;;;;;;;1.98;49.43;99437.38;5279034;28;20058;-66
2022/03/11 05:31:34;;;;;;;31.92;15.82;;;;;;;1.77;49.92;99440.16;5276726;28;20635;-66
2022/03/11 05:34:25;;;;;;;30.73;14.98;;;;;;;1.74;49.65;99442.06;5274780;28;20056;-67
2022/03/11 05:37:15;;;;;;;27.58;12.65;;;;;;;2.26;47.52;99444.63;5265183;28;20083;-66
2022/03/11 05:40:06;;;;;;;26.02;12.75;;;;;;;2.39;47.04;99445.69;5268093;28;20075;-66
2022/03/11 05:42:56;;;;;;;28.60;13.38;;;;;;;2.50;46.84;99440.72;5270895;28;20161;-67
2022/03/11 05:45:46;;;;;;;31.27;13.20;;;;;;;2.19;48.05;99444.13;5266830;28;20047;-67
2022/03/11 05:48:37;;;;;;;33.40;14.38;;;;;;;2.17;48.00;99435.50;5264901;28;20426;-67
2022/03/11 05:51:29;;;;;;;32.70;13.82;;;;;;;1.75;48.11;99443.75;5269121;28;21776;-67
2022/03/11 05:54:19;;;;;;;29.67;13.13;;;;;;;1.57;48.29;99446.38;5272967;28;20129;-67
2022/03/11 05:57:10;;;;;;;27.65;13.05;;;;;;;1.27;49.55;99438.28;5274288;28;20083;-66
2022/03/11 06:00:01;;;;;;;29.80;13.15;;;;;;;1.36;49.96;99453.50;5266780;28;20521;-67
2022/03/11 06:03:01;;;;;;;33.08;13.63;;;;;;;1.31;49.32;99454.66;5268999;28;20063;-68
2022/03/11 06:05:52;;;;;;;24.77;12.27;;;;;;;1.22;49.57;99444.63;5267769;28;20162;-67
2022/03/11 06:08:46;;;;;;;25.38;12.30;;;;;;;1.31;50.41;99444.19;5269869;28;20058;-67
2022/03/11 06:11:40;;;;;;;27.08;11.98;;;;;;;1.28;48.96;99452.19;5270032;28;20237;-67
2022/03/11 06:14:30;;;;;;;23.77;11.43;;;;;;;1.43;48.40;99429.69;5271762;28;20060;-67
2022/03/11 06:17:21;;;;;;;21.92;10.82;;;;;;;1.51;48.83;99436.22;5259968;28;20068;-67
2022/03/11 06:20:13;;;;;;;31.75;11.32;;;;;;;2.12;46.32;99445.38;5271442;28;20122;-67
2022/03/11 06:23:04;;;;;;;23.08;10.95;;;;;;;2.32;45.48;99433.84;5276571;28;20123;-67
2022/03/11 06:25:54;;;;;;;23.63;9.88;;;;;;;2.29;45.34;99440.09;5276162;28;20046;-67
2022/03/11 06:28:45;;;;;;;23.77;9.43;;;;;;;2.38;45.23;99440.50;5271213;28;20851;-67
2022/03/11 06:31:35;;;;;;;27.38;9.52;;;;;;;2.52;44.58;99440.66;5272544;28;20078;-68
2022/03/11 06:34:25;;;;;;;22.95;9.85;;;;;;;2.63;44.99;99445.28;5276998;28;20044;-67
2022/03/11 06:37:20;;;;;;;21.52;9.43;;;;;;;2.82;44.08;99441.59;5269529;28;20100;-66
2022/03/11 06:40:12;;;;;;;23.35;9.25;;;;;;;3.18;42.89;99448.34;5268255;28;20055;-68
2022/03/11 06:43:02;;;;;;;20.55;8.70;;;;;;;3.49;42.92;99444.81;5269117;28;20528;-69
2022/03/11 06:45:54;;;;;;;18.83;9.18;;;;;;;3.57;42.42;99447.00;5271749;28;20047;-69
2022/03/11 06:48:44;;;;;;;23.67;9.77;;;;;;;3.71;41.96;99444.44;5265760;28;20077;-69
2022/03/11 06:51:35;;;;;;;21.77;9.23;;;;;;;3.84;41.08;99448.94;5271374;28;20063;-70
2022/03/11 06:54:25;;;;;;;21.02;8.85;;;;;;;4.09;41.43;99449.19;5262212;28;20051;-69
2022/03/11 06:57:17;;;;;;;17.83;8.75;;;;;;;4.35;40.38;99450.25;5265490;28;20063;-70
2022/03/11 07:00:09;;;;;;;19.58;8.73;;;;;;;4.69;39.89;99449.00;5265699;28;20417;-70
2022/03/11 07:03:03;;;;;;;18.45;8.23;;;;;;;4.68;38.91;99449.94;5264533;28;20162;-69
2022/03/11 07:05:53;;;;;;;14.27;7.63;;;;;;;5.54;37.21;99443.63;5266739;28;20043;-69
2022/03/11 07:08:45;;;;;;;19.15;8.32;;;;;;;4.96;37.87;99453.47;5250843;28;20070;-69
2022/03/11 07:11:35;;;;;;;17.77;8.05;;;;;;;4.61;39.05;99446.03;5276663;28;20575;-70
2022/03/11 07:14:25;;;;;;;16.58;7.53;;;;;;;4.84;37.97;99454.25;5254334;28;20056;-73
2022/03/11 07:17:18;;;;;;;17.13;8.00;;;;;;;5.18;37.58;99459.03;5265202;28;20508;-68
2022/03/11 07:20:09;;;;;;;17.25;8.40;;;;;;;5.36;38.21;99453.53;5264677;28;20051;-67
2022/03/11 07:23:00;;;;;;;19.13;7.47;;;;;;;5.45;37.60;99446.84;5271493;28;20048;-68
2022/03/11 07:25:51;;;;;;;18.27;8.60;;;;;;;5.24;37.55;99439.41;5264578;28;20048;-68
2022/03/11 07:28:41;;;;;;;17.38;8.70;;;;;;;5.65;36.67;99460.38;5265494;28;20884;-68
2022/03/11 07:31:31;;;;;;;22.77;8.57;;;;;;;6.12;36.01;99458.16;5263458;28;20059;-67
2022/03/11 07:34:23;;;;;;;18.67;8.38;;;;;;;5.86;35.96;99462.50;5272061;28;20090;-67
2022/03/11 07:37:14;;;;;;;24.05;8.43;;;;;;;6.28;36.44;99457.97;5267032;28;20046;-67
2022/03/11 07:40:04;;;;;;;17.33;7.38;;;;;;;7.19;34.89;99441.91;5263709;28;20532;-68
2022/03/11 07:42:56;;;;;;;20.05;8.70;;;;;;;7.73;33.76;99450.16;5265924;28;20051;-67
2022/03/11 07:45:46;;;;;;;20.42;8.23;;;;;;;8.76;31.35;99452.88;5264551;28;20056;-67
2022/03/11 07:48:38;;;;;;;18.17;7.85;;;;;;;8.30;32.76;99460.88;5263053;28;20691;-68
2022/03/11 07:51:31;;;;;;;17.05;8.43;;;;;;;8.43;33.14;99456.34;5274428;27;20060;-67
2022/03/11 07:54:21;;;;;;;19.25;8.45;;;;;;;8.66;31.81;99442.19;5261342;28;20059;-68
2022/03/11 07:57:12;;;;;;;13.77;7.65;;;;;;;9.35;31.00;99447.25;5263159;28;20052;-68
2022/03/11 08:00:08;;;;;;;19.30;8.32;;;;;;;8.94;31.36;99453.25;5263636;28;20048;-68
2022/03/11 08:03:04;;;;;;;13.98;7.60;;;;;;;9.16;30.36;99439.13;5264461;28;20101;-69
2022/03/11 08:05:54;;;;;;;14.05;7.65;;;;;;;9.36;30.25;99445.44;5263259;28;20085;-69
2022/03/11 08:08:44;;;;;;;16.48;8.18;;;;;;;9.39;31.08;99446.03;5271987;28;20421;-69
2022/03/11 08:11:36;;;;;;;12.60;7.80;;;;;;;9.65;30.37;99454.47;5260081;28;20701;-67
2022/03/11 08:14:26;;;;;;;14.85;7.80;;;;;;;9.72;30.65;99448.69;5260273;28;20051;-68
2022/03/11 08:17:16;;;;;;;14.88;7.40;;;;;;;10.11;29.13;99445.34;5274242;28;20406;-68
2022/03/11 08:20:08;;;;;;;21.60;8.40;;;;;;;9.89;29.38;99435.69;5270405;28;20052;-68
2022/03/11 08:22:58;;;;;;;19.80;8.18;;;;;;;10.84;29.78;99441.81;5276946;28;20120;-69
2022/03/11 08:25:49;;;;;;;14.20;8.18;;;;;;;11.32;28.90;99441.91;5264175;28;20421;-69
2022/03/11 08:28:39;;;;;;;15.70;7.90;;;;;;;10.02;29.04;99439.97;5264415;28;20055;-69
2022/03/11 08:31:29;;;;;;;13.25;7.95;;;;;;;10.77;29.85;99454.78;5263329;28;20780;-69
2022/03/11 08:34:20;;;;;;;17.92;7.75;;;;;;;11.20;28.21;99446.53;5263059;28;20426;-69
2022/03/11 08:37:30;;;;;;;16.85;7.93;;;;;;;11.64;28.66;99441.66;5263390;28;20056;-68
2022/03/11 08:40:26;;;;;;;19.27;7.60;;;;;;;9.95;29.99;99434.34;5264054;28;20055;-69
2022/03/11 08:43:16;;;;;;;21.02;8.30;;;;;;;11.29;28.55;99443.06;5264245;28;20426;-68
2022/03/11 08:46:11;;;;;;;;;;;;;;;10.83;29.77;99435.69;5263289;28;20071;-68
2022/03/11 08:49:01;;;;;;;17.83;8.23;;;;;;;11.62;29.29;99434.81;5257991;28;19926;-70
2022/03/11 08:51:51;;;;;;;14.55;8.35;;;;;;;11.56;28.07;99438.88;5264712;28;20064;-69
2022/03/11 08:54:41;;;;;;;14.27;8.23;;;;;;;11.89;28.56;99432.34;5278298;28;20051;-69
2022/03/11 08:57:31;;;;;;;34.83;8.95;;;;;;;12.75;28.17;99426.94;5261943;28;20036;-69
2022/03/11 09:00:25;;;;;;;17.23;8.60;;;;;;;11.94;26.91;99423.94;5271709;28;20052;-69
2022/03/11 09:03:15;;;;;;;20.38;8.70;;;;;;;11.46;29.07;99422.13;5263820;28;20048;-68
2022/03/11 09:06:05;;;;;;;22.67;9.10;;;;;;;11.99;27.77;99421.69;5263379;28;20091;-69
2022/03/11 09:08:56;;;;;;;15.65;8.00;;;;;;;11.66;28.56;99421.13;5263797;28;20518;-69
2022/03/11 09:11:46;;;;;;;42.42;9.65;;;;;;;11.93;28.19;99422.25;5259075;28;20157;-68
2022/03/11 09:14:36;;;;;;;14.63;8.70;;;;;;;11.69;28.74;99412.06;5263482;28;20113;-70
2022/03/11 09:17:26;;;;;;;19.17;9.15;;;;;;;12.61;27.51;99406.94;5262855;28;20070;-69
2022/03/11 09:20:16;;;;;;;18.33;9.45;;;;;;;12.15;27.49;99403.34;5272133;28;20058;-68
2022/03/11 09:23:18;;;;;;;16.55;9.05;;;;;;;12.85;27.61;99405.59;5265431;28;20516;-69
2022/03/11 09:26:08;;;;;;;19.52;8.65;;;;;;;12.26;28.18;99402.31;5258901;28;20126;-70
2022/03/11 09:28:59;;;;;;;18.30;9.45;;;;;;;13.01;26.93;99396.94;5267790;28;20059;-69
2022/03/11 09:31:50;;;;;;;15.35;8.63;;;;;;;12.15;27.65;99386.53;5258627;28;20537;-67
2022/03/11 09:34:43;;;;;;;14.80;8.63;;;;;;;12.78;27.66;99391.19;5265562;28;20055;-67
2022/03/11 09:37:34;;;;;;;18.13;8.88;;;;;;;12.03;28.77;99356.66;5266052;28;20128;-67
2022/03/11 09:40:24;;;;;;;20.38;9.13;;;;;;;12.94;27.45;99386.03;5266418;28;20176;-67
2022/03/11 09:43:15;;;;;;;19.05;9.40;;;;;;;12.32;28.27;99384.97;5267587;28;20052;-67
2022/03/11 09:46:06;;;;;;;15.93;8.88;;;;;;;12.90;27.86;99382.84;5267222;28;20074;-68
2022/03/11 09:48:57;;;;;;;19.25;9.77;;;;;;;12.38;28.82;99366.59;5269161;28;20040;-67
2022/03/11 09:51:52;;;;;;;17.88;8.75;;;;;;;12.99;28.17;99359.84;5270084;28;20062;-68
2022/03/11 09:54:45;;;;;;;21.35;10.13;;;;;;;12.43;28.95;99369.66;5264492;28;20066;-66
2022/03/11 09:57:34;;;;;;;17.00;9.85;;;;;;;13.04;27.72;99367.34;5277328;28;20537;-67
2022/03/11 10:00:25;;;;;;;20.25;9.70;;;;;;;13.14;26.92;99373.44;5266774;28;20055;-66
2022/03/11 10:03:20;;;;;;;;;;;;;;;13.78;26.56;99360.91;5268006;28;20055;-66
2022/03/11 10:06:10;;;;;;;18.48;9.32;;;;;;;13.47;28.03;99369.28;5276094;28;19926;-67
2022/03/11 10:09:00;;;;;;;23.30;9.20;;;;;;;13.83;27.39;99363.94;5258511;28;20521;-67
2022/03/11 10:11:53;;;;;;;19.48;9.40;;;;;;;13.27;28.37;99357.13;5255961;28;20055;-67
2022/03/11 10:14:43;;;;;;;16.92;10.32;;;;;;;12.88;28.95;99360.03;5265907;28;20059;-67
2022/03/11 10:17:46;;;;;;;20.30;9.73;;;;;;;13.59;27.60;99354.75;5261559;28;20055;-67
2022/03/11 10:20:37;;;;;;;148.10;16.08;;;;;;;14.09;28.10;99354.09;5268576;28;20079;-67
2022/03/11 10:23:27;;;;;;;20.35;9.38;;;;;;;13.62;27.60;99357.13;5276912;28;20047;-67
2022/03/11 10:26:36;;;;;;;16.70;9.23;;;;;;;13.52;27.21;99351.03;5253583;28;20664;-67
2022/03/11 10:29:34;;;;;;;18.15;10.00;;;;;;;14.08;27.32;99338.28;5254104;28;20048;-67
2022/03/11 10:32:24;;;;;;;20.57;10.67;;;;;;;14.68;28.03;99353.44;5264877;28;20048;-67
2022/03/11 10:35:18;;;;;;;115.47;14.82;;;;;;;13.76;28.00;99353.06;5261234;28;20626;-67
2022/03/11 10:38:11;;;;;;;30.25;10.40;;;;;;;14.56;27.73;99342.19;5261590;28;20046;-67
2022/03/11 10:41:02;;;;;;;22.63;10.43;;;;;;;14.06;27.47;99342.91;5265779;28;20262;-67
2022/03/11 10:44:03;;;;;;;23.65;10.45;;;;;;;14.30;27.02;99344.88;5264880;28;20113;-67
2022/03/11 10:46:54;;;;;;;21.40;11.00;;;;;;;14.00;27.96;99352.38;5258934;28;20052;-68
2022/03/11 10:49:53;;;;;;;19.98;10.13;;;;;;;14.59;27.30;99343.72;5265271;28;20048;-67
2022/03/11 10:52:46;;;;;;;21.35;9.73;;;;;;;14.30;28.34;99340.41;5261125;28;20113;-67
2022/03/11 10:55:39;;;;;;;45.58;10.95;;;;;;;14.61;27.83;99345.25;5265740;28;20090;-67
2022/03/11 10:58:29;;;;;;;18.52;10.60;;;;;;;14.72;26.74;99344.09;5264219;28;20046;-67
2022/03/11 11:01:38;;;;;;;18.65;10.93;;;;;;;14.05;28.49;99335.94;5275146;28;20055;-67
2022/03/11 11:04:29;;;;;;;25.95;10.75;;;;;;;14.20;27.97;99334.31;5259120;28;20054;-67
2022/03/11 11:07:19;;;;;;;17.98;10.20;;;;;;;14.38;28.11;99341.44;5257822;28;20059;-68
2022/03/11 11:10:11;;;;;;;17.50;10.35;;;;;;;14.15;29.26;99335.81;5264222;28;20054;-67
2022/03/11 11:13:02;;;;;;;23.33;10.65;;;;;;;13.94;29.07;99310.38;5259571;28;20053;-66
2022/03/11 11:15:54;;;;;;;19.00;10.63;;;;;;;14.16;28.12;99332.97;5264081;28;20565;-66
2022/03/11 11:18:46;;;;;;;17.02;10.10;;;;;;;14.28;28.12;99318.38;5270434;28;20063;-66
2022/03/11 11:21:46;;;;;;;19.90;10.65;;;;;;;13.94;27.95;99306.84;5270838;28;20125;-66
2022/03/11 11:24:39;;;;;;;22.58;10.27;;;;;;;13.94;27.81;99310.38;5266652;28;20059;-66
2022/03/11 11:27:34;;;;;;;18.43;10.83;;;;;;;14.07;28.59;99304.59;5264625;28;20635;-66
2022/03/11 11:30:25;;;;;;;16.42;10.13;;;;;;;14.25;28.52;99299.19;5258698;28;20048;-66
2022/03/11 11:33:16;;;;;;;17.92;10.43;;;;;;;14.32;28.46;99294.88;5259984;28;20052;-67
2022/03/11 11:36:06;;;;;;;17.52;10.20;;;;;;;13.99;29.27;99292.06;5255984;28;20052;-68
2022/03/11 11:39:00;;;;;;;19.45;10.55;;;;;;;14.22;29.78;99292.34;5268328;28;20047;-67
2022/03/11 11:42:00;;;;;;;17.70;10.38;;;;;;;13.95;28.84;99287.22;5268109;28;20048;-67
2022/03/11 11:44:50;;;;;;;19.13;10.25;;;;;;;14.05;29.05;99282.59;5263477;28;20043;-67
2022/03/11 11:47:40;;;;;;;25.00;12.05;;;;;;;14.23;27.79;99280.66;5274093;28;20078;-67
2022/03/11 11:50:44;;;;;;;21.65;10.88;;;;;;;14.00;28.14;99271.56;5254066;28;20048;-67
2022/03/11 11:54:11;;;;;;;23.57;10.60;;;;;;;14.22;28.43;99263.00;5252235;28;20068;-67
2022/03/11 11:57:02;;;;;;;22.00;10.57;;;;;;;15.04;27.93;99252.56;5257071;28;20105;-67
2022/03/11 11:59:56;;;;;;;;;;;;;;;14.75;27.89;99248.50;5266779;28;20206;-67
2022/03/11 12:02:47;;;;;;;18.10;10.10;;;;;;;14.56;27.45;99246.97;5261211;28;19927;-67
2022/03/11 12:05:47;;;;;;;21.48;11.13;;;;;;;14.48;29.69;99235.44;5254473;28;20190;-69
2022/03/11 12:08:45;;;;;;;21.95;10.77;;;;;;;14.31;28.68;99239.88;5266555;28;20437;-68
2022/03/11 12:11:39;;;;;;;20.42;10.32;;;;;;;13.25;29.39;99234.81;5263861;28;20054;-67
2022/03/11 12:14:29;;;;;;;18.38;10.57;;;;;;;13.79;28.77;99245.31;5264518;28;20131;-70
2022/03/11 12:17:41;;;;;;;25.50;10.82;;;;;;;14.91;27.75;99242.38;5263964;28;20040;-70
2022/03/11 12:20:49;;;;;;;21.08;10.07;;;;;;;14.71;27.81;99236.50;5263920;28;20048;-68
2022/03/11 12:23:40;;;;;;;19.42;11.05;;;;;;;14.49;29.30;99232.59;5264417;28;20051;-67
2022/03/11 12:26:36;;;;;;;18.95;11.07;;;;;;;14.18;27.51;99218.16;5262363;28;20066;-68
2022/03/11 12:29:39;;;;;;;19.15;10.80;;;;;;;14.41;27.80;99215.75;5264563;28;20078;-67
2022/03/11 12:32:30;;;;;;;16.80;10.65;;;;;;;14.61;29.10;99213.66;5264657;28;20180;-68
2022/03/11 12:35:23;;;;;;;21.25;10.82;;;;;;;14.30;28.14;99187.50;5266538;28;20047;-68
2022/03/11 12:38:16;;;;;;;19.40;10.68;;;;;;;14.46;29.21;99195.56;5264281;28;20047;-67
2022/03/11 12:41:10;;;;;;;26.50;10.40;;;;;;;14.87;28.56;99198.31;5261263;28;20140;-69
2022/03/11 12:44:00;;;;;;;15.68;9.63;;;;;;;14.78;28.11;99185.97;5269726;28;20056;-69
2022/03/11 12:46:51;;;;;;;17.88;9.65;;;;;;;15.09;28.06;99187.97;5268242;28;20051;-66
2022/03/11 12:49:41;;;;;;;18.75;10.30;;;;;;;14.52;28.24;99178.09;5264414;28;20426;-67
2022/03/11 12:52:40;;;;;;;16.17;10.00;;;;;;;15.14;29.71;99161.59;5267770;28;20494;-66
2022/03/11 12:55:33;;;;;;;20.98;10.15;;;;;;;15.03;28.69;99171.63;5272833;28;20197;-68
2022/03/11 12:58:27;;;;;;;17.45;10.05;;;;;;;14.69;28.76;99173.59;5269912;28;20052;-69
2022/03/11 13:01:19;;;;;;;20.85;10.38;;;;;;;15.23;26.71;99165.91;5275477;28;20055;-69
2022/03/11 13:04:11;;;;;;;21.13;11.02;;;;;;;14.66;28.18;99163.25;5273049;28;20048;-69
2022/03/11 13:07:28;;;;;;;18.48;10.43;;;;;;;15.34;26.67;99164.72;5274185;28;20048;-71
2022/03/11 13:10:23;;;;;;;21.85;10.65;;;;;;;14.67;28.04;99108.88;5267570;28;20141;-68
2022/03/11 13:13:14;;;;;;;20.55;9.75;;;;;;;14.85;28.06;99154.94;5273251;28;20509;-68
2022/03/11 13:16:05;;;;;;;16.85;10.32;;;;;;;14.82;28.26;99146.44;5266432;28;20062;-66
2022/03/11 13:19:04;;;;;;;16.58;9.52;;;;;;;14.67;27.85;99143.56;5267100;28;20051;-69
2022/03/11 13:21:54;;;;;;;19.10;9.90;;;;;;;15.34;27.68;99140.69;5263632;28;20067;-68